Surat Thani, Thailand
Current Conditions -  °F | °C
As of 5:00 PM on Monday 22 Dec 2014 (Local Time) from VTSB Reporting Station
Overcast Overcast  
Wind Chill: 77°   Ceiling: 1800
Heat Index: 78°   Visibility: 6mi
Dew Point: 77°   Wind: 6mph
Humidity: 100%   Direction: 40°NE
Pressure: 29.77"   Gusts: NA
Location:  9.14°N, 99.33°E
Report Text: VTSB 221000Z 04005KT 6000-RA BKN018 OVC120 25/25 Q1008 A2979
Loading
Personal Weather Stations






























Interactive Weather Map New forecast layout! Learn more

10-Day Weather Forecast

Advertisements
Track Severe Weather on mobile